Time;durP1;ratioP1;P1;durP2;ratioP2;P2;SDS_P1;SDS_P2;PMS_P1;PMS_P2;Temp;Humidity;BMP_temperature;BMP_pressure;BME280_temperature;BME280_humidity;BME280_pressure;Samples;Min_cycle;Max_cycle;Signal;HPM_P1;HPM_P2
2022/01/07 00:01:06;;;;;;;2.37;1.80;;;9.90;99.90;;;;;;5066595;28;20196;-95
2022/01/07 00:03:40;;;;;;;1.20;1.10;;;9.90;99.90;;;;;;5051927;28;20201;-95
2022/01/07 00:06:14;;;;;;;1.50;1.27;;;9.90;99.90;;;;;;5052901;28;20212;-96
2022/01/07 00:08:45;;;;;;;1.40;1.30;;;9.90;99.90;;;;;;5050920;28;20205;-94
2022/01/07 00:11:17;;;;;;;1.40;1.30;;;9.90;99.90;;;;;;5049587;28;20239;-93
2022/01/07 00:13:49;;;;;;;2.00;1.00;;;9.90;99.90;;;;;;5036854;28;20213;-93
2022/01/07 00:16:20;;;;;;;2.37;1.30;;;9.90;99.90;;;;;;5055891;28;20208;-93
2022/01/07 00:18:51;;;;;;;1.20;1.00;;;9.90;99.90;;;;;;5028961;28;20292;-92
2022/01/07 00:21:24;;;;;;;1.50;1.10;;;9.90;99.90;;;;;;5058292;28;20212;-95
2022/01/07 00:23:56;;;;;;;2.20;2.03;;;10.00;99.90;;;;;;5057222;28;20212;-93
2022/01/07 00:26:30;;;;;;;5.50;3.90;;;9.90;99.90;;;;;;5049258;28;20216;-95
2022/01/07 00:29:02;;;;;;;1.80;1.63;;;9.90;99.90;;;;;;5054362;28;20220;-93
2022/01/07 00:31:34;;;;;;;1.30;1.20;;;9.90;99.90;;;;;;5024313;28;20304;-95
2022/01/07 00:34:05;;;;;;;1.53;1.30;;;9.90;99.90;;;;;;5023035;28;20282;-93
2022/01/07 00:36:38;;;;;;;2.50;1.80;;;9.90;99.90;;;;;;5039092;28;20228;-94
2022/01/07 00:39:10;;;;;;;2.23;1.90;;;9.90;99.90;;;;;;5046893;28;20208;-95
2022/01/07 00:41:41;;;;;;;3.23;2.00;;;9.90;99.90;;;;;;5046916;28;20220;-93
2022/01/07 00:44:12;;;;;;;2.80;1.80;;;9.90;99.90;;;;;;5024033;28;20224;-94
2022/01/07 00:46:43;;;;;;;1.80;1.70;;;9.90;99.90;;;;;;5041904;28;20205;-95
2022/01/07 00:49:21;;;;;;;2.63;2.43;;;9.90;99.90;;;;;;5036904;28;20218;-95
2022/01/07 00:51:54;;;;;;;2.13;2.00;;;9.90;99.90;;;;;;5045201;28;20590;-95
2022/01/07 00:54:27;;;;;;;2.03;1.83;;;9.90;99.90;;;;;;5040283;28;20211;-94
2022/01/07 00:56:59;;;;;;;1.80;1.70;;;9.90;99.90;;;;;;5039586;28;20208;-95
2022/01/07 00:59:30;;;;;;;1.60;1.50;;;9.90;99.90;;;;;;5040771;28;20233;-95
2022/01/07 01:02:02;;;;;;;2.57;2.37;;;9.90;99.90;;;;;;5031737;28;20268;-94
2022/01/07 01:04:46;;;;;;;1.67;1.33;;;9.90;99.90;;;;;;5047512;28;20319;-94
2022/01/07 01:07:20;;;;;;;3.40;1.50;;;9.90;99.90;;;;;;5037059;28;20213;-93
2022/01/07 01:12:26;;;;;;;1.93;1.10;;;9.90;99.90;;;;;;5240316;23;20247;-95
2022/01/07 01:14:57;;;;;;;1.20;1.07;;;9.90;99.90;;;;;;5030284;28;20249;-94
2022/01/07 01:17:29;;;;;;;1.30;1.10;;;9.90;99.90;;;;;;5030508;28;20237;-94
2022/01/07 01:20:06;;;;;;;0.87;0.87;;;9.90;99.90;;;;;;5016134;28;20202;-94
2022/01/07 01:22:41;;;;;;;1.30;1.03;;;9.90;99.90;;;;;;5034962;28;20193;-94
2022/01/07 01:25:13;;;;;;;1.27;1.00;;;9.90;99.90;;;;;;5035537;28;20193;-93
2022/01/07 01:30:28;;;;;;;1.70;1.13;;;9.90;99.90;;;;;;5402601;23;20270;-93
2022/01/07 01:32:59;;;;;;;1.10;1.00;;;9.80;99.90;;;;;;5055516;28;20224;-93
2022/01/07 01:35:31;;;;;;;2.47;1.03;;;9.80;99.90;;;;;;5055129;28;20219;-92
2022/01/07 01:38:06;;;;;;;2.90;1.17;;;9.90;99.90;;;;;;5059680;28;20217;-93
2022/01/07 01:54:03;;;;;;;4.43;1.50;;;9.90;99.90;;;;;;5036967;28;20354;-93
2022/01/07 01:56:37;;;;;;;2.37;1.00;;;9.90;99.90;;;;;;5039846;28;20244;-92
2022/01/07 01:59:13;;;;;;;1.70;1.60;;;9.90;99.90;;;;;;5038979;28;20194;-92
2022/01/07 02:01:45;;;;;;;1.40;1.30;;;9.80;99.90;;;;;;5038296;28;20215;-91
2022/01/07 02:04:16;;;;;;;1.07;1.07;;;9.80;99.90;;;;;;5035007;28;20278;-94
2022/01/07 02:06:46;;;;;;;1.70;1.00;;;9.80;99.90;;;;;;5039113;28;20250;-94
2022/01/07 02:09:25;;;;;;;2.30;1.10;;;9.80;99.90;;;;;;5057180;28;20193;-91
2022/01/07 02:11:56;;;;;;;0.83;0.83;;;9.70;99.90;;;;;;5036886;28;20241;-92
2022/01/07 02:14:28;;;;;;;1.10;1.00;;;9.80;99.90;;;;;;5037576;28;20264;-92
2022/01/07 02:17:07;;;;;;;1.20;1.10;;;9.70;99.90;;;;;;5039024;28;20272;-93
2022/01/07 02:19:41;;;;;;;0.97;0.80;;;9.80;99.90;;;;;;5039191;28;20186;-93
2022/01/07 02:22:15;;;;;;;1.20;0.83;;;9.70;99.90;;;;;;5036138;28;20224;-93
2022/01/07 02:24:46;;;;;;;1.53;1.43;;;9.70;99.90;;;;;;5037165;28;20217;-93
2022/01/07 02:27:18;;;;;;;2.00;1.67;;;9.70;99.90;;;;;;5035344;28;20210;-93
2022/01/07 02:29:54;;;;;;;0.60;0.60;;;9.70;99.90;;;;;;5033675;28;20245;-93
2022/01/07 02:32:25;;;;;;;1.00;0.60;;;9.70;99.90;;;;;;5038105;28;20241;-94
2022/01/07 02:34:58;;;;;;;0.73;0.60;;;9.70;99.90;;;;;;5033910;28;20684;-90
2022/01/07 02:37:30;;;;;;;1.90;0.50;;;9.60;99.90;;;;;;5037858;28;20196;-93
2022/01/07 02:42:36;;;;;;;0.77;0.70;;;9.60;99.90;;;;;;5273226;23;20270;-94
2022/01/07 02:55:50;;;;;;;3.00;2.80;;;9.50;99.90;;;;;;5859715;23;20297;-92
2022/01/07 02:58:22;;;;;;;0.90;0.50;;;9.50;99.90;;;;;;5050052;28;20250;-92
2022/01/07 03:00:53;;;;;;;0.50;0.50;;;9.40;99.90;;;;;;5051124;28;20275;-93
2022/01/07 03:03:24;;;;;;;0.37;0.37;;;9.40;99.90;;;;;;5051299;28;20232;-93
2022/01/07 03:05:55;;;;;;;0.90;0.40;;;9.50;99.90;;;;;;5052655;28;20216;-92
2022/01/07 03:08:26;;;;;;;1.27;0.70;;;9.40;99.90;;;;;;5052577;28;20209;-93
2022/01/07 03:11:02;;;;;;;1.50;0.43;;;9.50;99.90;;;;;;5037779;28;20197;-94
2022/01/07 03:13:32;;;;;;;0.27;0.27;;;9.40;99.90;;;;;;5056776;28;20239;-93
2022/01/07 03:16:05;;;;;;;0.50;0.30;;;9.40;99.90;;;;;;5056657;28;20218;-93
2022/01/07 03:18:36;;;;;;;0.57;0.30;;;9.40;99.90;;;;;;5057048;28;20238;-94
2022/01/07 03:21:07;;;;;;;0.83;0.40;;;9.40;99.90;;;;;;5054183;28;20220;-93
2022/01/07 03:23:40;;;;;;;0.33;0.23;;;9.40;99.90;;;;;;5058326;28;20201;-94
2022/01/07 03:26:13;;;;;;;1.23;1.23;;;9.40;99.90;;;;;;5054534;28;20215;-93
2022/01/07 03:28:46;;;;;;;0.40;0.40;;;9.30;99.90;;;;;;5055215;28;20205;-93
2022/01/07 03:31:16;;;;;;;0.30;0.30;;;9.40;99.90;;;;;;5051764;28;20232;-93
2022/01/07 03:33:48;;;;;;;0.20;0.20;;;9.30;99.90;;;;;;5049254;28;20224;-93
2022/01/07 03:36:18;;;;;;;4.67;3.93;;;9.30;99.90;;;;;;5052069;28;20212;-93
2022/01/07 03:38:50;;;;;;;3.53;3.33;;;9.20;99.90;;;;;;5046997;28;20262;-93
2022/01/07 03:41:22;;;;;;;0.97;0.70;;;9.30;99.90;;;;;;5049046;28;20201;-91
2022/01/07 03:43:54;;;;;;;0.30;0.30;;;9.20;99.90;;;;;;5046565;28;20573;-93
2022/01/07 03:46:25;;;;;;;0.80;0.50;;;9.20;99.90;;;;;;5051826;28;20271;-94
2022/01/07 03:51:32;;;;;;;0.20;0.20;;;9.10;99.90;;;;;;5131130;23;20242;-94
2022/01/07 03:54:03;;;;;;;1.20;0.60;;;9.10;99.90;;;;;;5058556;28;20237;-93
2022/01/07 03:56:38;;;;;;;0.87;0.40;;;9.10;99.90;;;;;;5058346;28;20250;-94
2022/01/07 03:59:10;;;;;;;1.83;1.33;;;9.10;99.90;;;;;;5058680;28;20234;-93
2022/01/07 04:01:42;;;;;;;1.40;0.40;;;9.10;99.90;;;;;;5058778;28;20188;-94
2022/01/07 04:04:13;;;;;;;0.83;0.20;;;9.10;99.90;;;;;;5058315;28;20197;-94
2022/01/07 04:06:43;;;;;;;1.07;1.07;;;9.10;99.90;;;;;;5057464;28;20200;-93
2022/01/07 04:09:16;;;;;;;0.93;0.93;;;9.10;99.90;;;;;;5204606;23;20220;-94
2022/01/07 04:11:59;;;;;;;0.40;0.40;;;9.10;99.90;;;;;;5163415;23;20239;-95
2022/01/07 04:14:30;;;;;;;31.10;4.90;;;9.10;99.90;;;;;;5056027;28;20258;-96
2022/01/07 04:17:02;;;;;;;0.43;0.43;;;9.10;99.90;;;;;;5055952;28;20204;-92
2022/01/07 04:19:32;;;;;;;0.20;0.20;;;9.00;99.90;;;;;;5054156;28;20216;-93
2022/01/07 04:22:05;;;;;;;0.50;0.50;;;9.00;99.90;;;;;;5053886;28;20199;-94
2022/01/07 04:24:36;;;;;;;1.50;1.40;;;9.00;99.90;;;;;;5055007;28;20224;-93
2022/01/07 04:27:11;;;;;;;0.80;0.80;;;9.00;99.90;;;;;;5053445;28;20181;-95
2022/01/07 04:29:43;;;;;;;0.83;0.50;;;9.00;99.90;;;;;;5053226;28;20204;-93
2022/01/07 04:32:14;;;;;;;1.03;0.50;;;8.90;99.90;;;;;;5051647;28;20208;-94
2022/01/07 04:34:46;;;;;;;2.10;2.00;;;8.90;99.90;;;;;;5047809;28;20240;-94
2022/01/07 04:37:18;;;;;;;0.33;0.23;;;8.90;99.90;;;;;;5051706;28;20219;-95
2022/01/07 04:39:51;;;;;;;0.57;0.50;;;8.90;99.90;;;;;;5051907;28;20213;-94
2022/01/07 04:42:25;;;;;;;0.60;0.60;;;8.90;99.90;;;;;;5051621;28;20208;-94
2022/01/07 04:44:56;;;;;;;1.33;0.93;;;8.80;99.90;;;;;;5048226;28;20219;-94
2022/01/07 04:47:27;;;;;;;1.63;0.50;;;8.90;99.90;;;;;;5052956;28;20215;-94
2022/01/07 04:49:58;;;;;;;0.50;0.40;;;8.80;99.90;;;;;;5044833;28;20208;-93
2022/01/07 04:52:30;;;;;;;0.93;0.90;;;8.80;99.90;;;;;;5050197;28;20189;-93
2022/01/07 04:55:02;;;;;;;1.27;0.40;;;8.80;99.90;;;;;;5049616;28;20232;-94
2022/01/07 04:57:35;;;;;;;0.40;0.40;;;8.70;99.90;;;;;;5048775;28;20205;-93
2022/01/07 05:00:08;;;;;;;1.57;1.47;;;8.70;99.90;;;;;;5040118;28;20435;-93
2022/01/07 05:02:38;;;;;;;2.70;0.70;;;8.70;99.90;;;;;;5043219;28;20213;-94
2022/01/07 05:05:10;;;;;;;0.40;0.40;;;8.70;99.90;;;;;;5043896;28;20201;-94
2022/01/07 05:07:41;;;;;;;0.37;0.37;;;8.70;99.90;;;;;;5038794;28;20244;-93
2022/01/07 05:10:13;;;;;;;1.80;0.40;;;8.70;99.90;;;;;;5039190;28;20227;-95
2022/01/07 05:12:46;;;;;;;29.77;5.57;;;8.70;99.90;;;;;;5042965;28;20203;-93
2022/01/07 05:15:18;;;;;;;0.40;0.40;;;8.70;99.90;;;;;;5039251;28;20290;-94
2022/01/07 05:17:49;;;;;;;0.47;0.20;;;8.70;99.90;;;;;;5039148;28;20209;-95
2022/01/07 05:20:20;;;;;;;0.40;0.30;;;8.60;99.90;;;;;;5041238;28;20343;-94
2022/01/07 05:22:51;;;;;;;0.30;0.30;;;8.60;99.90;;;;;;5039700;28;20211;-94
2022/01/07 05:25:23;;;;;;;0.53;0.33;;;8.60;99.90;;;;;;5041479;28;20231;-91
2022/01/07 05:27:56;;;;;;;1.43;1.43;;;8.60;99.90;;;;;;5041260;28;20268;-92
2022/01/07 05:30:27;;;;;;;0.90;0.30;;;8.60;99.90;;;;;;5043445;28;20205;-92
2022/01/07 05:32:58;;;;;;;0.67;0.50;;;8.50;99.90;;;;;;5039779;28;20228;-93
2022/01/07 05:35:29;;;;;;;0.93;0.60;;;8.50;99.90;;;;;;5043390;28;20322;-95
2022/01/07 05:38:00;;;;;;;1.00;1.00;;;8.50;99.90;;;;;;5044393;28;20224;-94
2022/01/07 05:40:32;;;;;;;0.40;0.37;;;8.50;99.90;;;;;;5038847;28;20224;-95
2022/01/07 05:43:05;;;;;;;0.50;0.40;;;8.40;99.90;;;;;;5038274;28;20223;-95
2022/01/07 05:45:36;;;;;;;0.77;0.50;;;8.40;99.90;;;;;;5046002;28;20215;-95
2022/01/07 05:48:07;;;;;;;0.70;0.50;;;8.30;99.90;;;;;;5051745;28;20215;-92
2022/01/07 05:50:39;;;;;;;0.63;0.30;;;8.40;99.90;;;;;;5050711;28;20222;-93
2022/01/07 05:53:10;;;;;;;0.87;0.43;;;8.30;99.90;;;;;;5039931;28;20230;-94
2022/01/07 05:55:41;;;;;;;0.40;0.30;;;8.30;99.90;;;;;;5038810;28;20243;-95
2022/01/07 05:58:14;;;;;;;5.70;3.67;;;8.30;99.90;;;;;;5036803;28;20231;-94
2022/01/07 06:00:45;;;;;;;0.20;0.20;;;8.30;99.90;;;;;;5041620;28;20669;-94
2022/01/07 06:03:16;;;;;;;0.73;0.30;;;8.30;99.90;;;;;;5038396;28;20595;-91
2022/01/07 06:05:47;;;;;;;3.20;2.37;;;8.30;99.90;;;;;;5039589;28;20576;-94
2022/01/07 06:08:19;;;;;;;0.20;0.20;;;8.30;99.90;;;;;;5037406;28;20521;-93
2022/01/07 06:10:50;;;;;;;0.73;0.70;;;8.20;99.90;;;;;;5038854;28;20223;-94
2022/01/07 06:13:22;;;;;;;1.13;0.30;;;8.20;99.90;;;;;;5038394;28;20229;-94
2022/01/07 06:15:53;;;;;;;1.33;0.40;;;8.20;99.90;;;;;;5038435;28;20651;-94
2022/01/07 06:18:25;;;;;;;0.27;0.27;;;8.20;99.90;;;;;;5037100;28;20589;-93
2022/01/07 06:20:56;;;;;;;0.30;0.23;;;8.10;99.90;;;;;;5040198;28;20237;-93
2022/01/07 06:23:27;;;;;;;0.30;0.20;;;8.10;99.90;;;;;;5044099;28;20303;-94
2022/01/07 06:25:58;;;;;;;0.40;0.30;;;8.10;99.90;;;;;;5046180;28;20277;-94
2022/01/07 06:28:31;;;;;;;1.07;1.00;;;8.10;99.90;;;;;;5060859;23;20237;-94
2022/01/07 06:31:02;;;;;;;0.30;0.20;;;8.10;99.90;;;;;;5022250;28;20609;-94
2022/01/07 06:33:33;;;;;;;0.20;0.20;;;8.10;99.90;;;;;;5022602;28;20264;-94
2022/01/07 06:36:04;;;;;;;0.20;0.20;;;8.10;99.90;;;;;;5023395;28;20300;-94
2022/01/07 06:38:36;;;;;;;0.30;0.30;;;8.10;99.90;;;;;;5039087;28;20224;-93
2022/01/07 06:41:07;;;;;;;0.47;0.30;;;8.10;99.90;;;;;;5041968;28;20203;-94
2022/01/07 06:43:40;;;;;;;1.93;0.30;;;8.00;99.90;;;;;;5042604;28;20245;-94
2022/01/07 06:46:11;;;;;;;0.10;0.10;;;8.00;99.90;;;;;;5033059;28;20213;-94
2022/01/07 06:48:43;;;;;;;0.60;0.30;;;8.00;99.90;;;;;;5024201;28;20291;-95
2022/01/07 06:51:14;;;;;;;0.47;0.30;;;8.00;99.90;;;;;;5023586;28;20244;-94
2022/01/07 06:53:45;;;;;;;0.20;0.20;;;8.00;99.90;;;;;;5023424;28;20212;-94
2022/01/07 06:56:16;;;;;;;0.37;0.23;;;8.00;99.90;;;;;;5025415;28;20697;-94
2022/01/07 06:58:53;;;;;;;0.70;0.30;;;8.00;99.90;;;;;;5030543;28;20240;-94
2022/01/07 07:12:05;;;;;;;0.20;0.20;;;7.90;99.90;;;;;;5155149;27;20578;-91
2022/01/07 07:14:36;;;;;;;0.20;0.20;;;8.00;99.90;;;;;;5153642;27;20200;-94
2022/01/07 07:17:07;;;;;;;0.10;0.10;;;7.90;99.90;;;;;;5147646;27;20201;-93
2022/01/07 07:19:39;;;;;;;0.73;0.37;;;7.90;99.90;;;;;;5143185;27;20225;-94
2022/01/07 07:22:11;;;;;;;0.37;0.30;;;7.90;99.90;;;;;;5139194;28;20206;-94
2022/01/07 07:24:42;;;;;;;0.30;0.20;;;7.90;99.90;;;;;;5139520;27;20318;-94
2022/01/07 07:27:15;;;;;;;0.60;0.20;;;7.90;99.90;;;;;;5137657;27;20266;-94
2022/01/07 07:29:48;;;;;;;1.13;0.20;;;7.90;99.90;;;;;;5138366;28;20236;-94
2022/01/07 07:32:23;;;;;;;3.73;0.40;;;7.90;99.90;;;;;;5137603;27;20237;-94
2022/01/07 07:36:25;;;;;;;0.97;0.37;;;7.90;99.90;;;;;;5139231;27;20201;-93
2022/01/07 07:37:53;;;;;;;0.37;0.20;;;7.90;99.90;;;;;;5137958;27;20202;-93
2022/01/07 07:40:25;;;;;;;0.40;0.20;;;7.90;99.90;;;;;;5143518;27;20238;-92
2022/01/07 07:42:58;;;;;;;0.50;0.20;;;7.90;99.90;;;;;;5142482;27;20259;-92
2022/01/07 07:45:31;;;;;;;0.20;0.20;;;7.90;99.90;;;;;;5148441;27;20208;-93
2022/01/07 07:48:04;;;;;;;0.27;0.20;;;7.90;99.90;;;;;;5162189;27;20206;-93
2022/01/07 07:50:35;;;;;;;0.20;0.20;;;7.80;99.90;;;;;;5161478;27;20209;-93
2022/01/07 07:53:05;;;;;;;0.40;0.40;;;7.80;99.90;;;;;;5162413;27;20208;-93
2022/01/07 07:55:37;;;;;;;0.70;0.30;;;7.80;99.90;;;;;;5162724;27;20205;-93
2022/01/07 07:58:10;;;;;;;0.40;0.33;;;7.80;99.90;;;;;;5159251;27;20205;-94
2022/01/07 08:00:41;;;;;;;0.37;0.30;;;7.80;99.90;;;;;;5162888;27;20225;-93
2022/01/07 08:03:12;;;;;;;0.20;0.20;;;7.80;99.90;;;;;;5164601;27;20197;-94
2022/01/07 08:05:43;;;;;;;0.20;0.20;;;7.80;99.90;;;;;;5165360;27;20201;-93
2022/01/07 08:08:14;;;;;;;0.20;0.20;;;7.70;99.90;;;;;;5166435;27;20208;-93
2022/01/07 08:10:48;;;;;;;0.47;0.30;;;7.70;99.90;;;;;;5166094;27;20219;-92
2022/01/07 08:13:29;;;;;;;0.40;0.30;;;7.80;99.90;;;;;;5151028;27;20291;-93
2022/01/07 08:16:01;;;;;;;0.30;0.30;;;7.80;99.90;;;;;;5152887;27;20225;-93
2022/01/07 08:18:34;;;;;;;0.30;0.30;;;7.70;99.90;;;;;;5153641;27;20198;-93
2022/01/07 08:21:08;;;;;;;0.30;0.23;;;7.70;99.90;;;;;;5152945;27;20234;-93
2022/01/07 08:23:40;;;;;;;0.30;0.30;;;7.70;99.90;;;;;;5132196;27;20206;-95
2022/01/07 08:26:12;;;;;;;0.30;0.30;;;7.70;99.90;;;;;;5133081;28;20203;-95
2022/01/07 08:28:48;;;;;;;1.03;0.20;;;7.70;99.90;;;;;;5131380;28;20198;-94
2022/01/07 08:37:02;;;;;;;0.27;0.23;;;7.60;99.90;;;;;;5122903;28;20256;-96
2022/01/07 08:39:33;;;;;;;2.00;0.67;;;7.70;99.90;;;;;;5132194;28;20231;-91
2022/01/07 08:42:05;;;;;;;0.30;0.20;;;7.70;99.90;;;;;;5132926;28;20230;-94
2022/01/07 08:44:37;;;;;;;0.30;0.30;;;7.60;99.90;;;;;;5132233;28;20275;-93
2022/01/07 08:47:10;;;;;;;0.10;0.10;;;7.70;99.90;;;;;;5134204;28;20230;-93
2022/01/07 08:49:41;;;;;;;0.37;0.20;;;7.70;99.90;;;;;;5135186;28;20206;-93
2022/01/07 08:52:12;;;;;;;0.20;0.20;;;7.60;99.90;;;;;;5121632;22;20258;-93
2022/01/07 08:54:43;;;;;;;0.20;0.20;;;7.60;99.90;;;;;;5053920;28;20213;-92
2022/01/07 08:57:14;;;;;;;1.60;0.30;;;7.60;99.90;;;;;;5053074;28;20216;-93
2022/01/07 08:59:47;;;;;;;18.97;3.40;;;7.50;99.90;;;;;;5051498;28;20201;-93
2022/01/07 09:02:19;;;;;;;0.30;0.30;;;7.60;99.90;;;;;;5052471;28;20239;-93
2022/01/07 09:04:51;;;;;;;0.43;0.43;;;7.60;99.90;;;;;;5050258;28;20272;-94
2022/01/07 09:07:22;;;;;;;0.10;0.10;;;7.50;99.90;;;;;;5048988;28;20213;-94
2022/01/07 09:09:53;;;;;;;0.40;0.30;;;7.50;99.90;;;;;;5049590;28;20209;-93
2022/01/07 09:12:24;;;;;;;0.20;0.20;;;7.50;99.90;;;;;;5046182;28;20205;-95
2022/01/07 09:14:56;;;;;;;0.20;0.20;;;7.40;99.90;;;;;;5056091;28;20189;-95
2022/01/07 09:17:30;;;;;;;0.60;0.20;;;7.50;99.90;;;;;;5057725;28;20196;-94
2022/01/07 09:20:01;;;;;;;0.20;0.20;;;7.40;99.90;;;;;;5057423;28;20198;-94
2022/01/07 09:22:32;;;;;;;0.30;0.27;;;7.40;99.90;;;;;;5042919;28;20316;-95
2022/01/07 09:25:02;;;;;;;0.50;0.20;;;7.40;99.90;;;;;;5044103;28;20596;-95
2022/01/07 09:27:34;;;;;;;0.50;0.20;;;7.40;99.90;;;;;;5056541;28;20220;-93
2022/01/07 09:30:08;;;;;;;0.40;0.40;;;7.40;99.90;;;;;;5057996;28;20197;-93
2022/01/07 09:32:39;;;;;;;0.20;0.20;;;7.40;99.90;;;;;;5057556;28;20192;-94
2022/01/07 09:35:11;;;;;;;3.27;3.07;;;7.40;99.90;;;;;;5053647;28;20209;-95
2022/01/07 09:37:42;;;;;;;0.40;0.40;;;7.40;99.90;;;;;;5042415;28;20205;-96
2022/01/07 09:40:14;;;;;;;0.20;0.20;;;7.40;99.90;;;;;;5040857;28;20272;-96
2022/01/07 09:42:57;;;;;;;0.70;0.20;;;7.40;99.90;;;;;;5039933;28;20264;-95
2022/01/07 09:45:32;;;;;;;0.40;0.40;;;7.40;99.90;;;;;;5040229;28;20273;-94
2022/01/07 09:48:08;;;;;;;1.37;0.20;;;7.40;99.90;;;;;;5039476;28;20678;-94
2022/01/07 09:50:39;;;;;;;0.30;0.20;;;7.30;99.90;;;;;;5040263;28;20693;-94
2022/01/07 09:53:14;;;;;;;0.30;0.20;;;7.40;99.90;;;;;;5048089;28;20224;-92
2022/01/07 09:55:46;;;;;;;0.20;0.20;;;7.40;99.90;;;;;;5046439;28;20200;-94
2022/01/07 09:58:17;;;;;;;0.30;0.20;;;7.30;99.90;;;;;;5038725;28;20208;-93
2022/01/07 10:00:50;;;;;;;0.60;0.20;;;7.30;99.90;;;;;;5040336;28;20201;-94
2022/01/07 10:03:21;;;;;;;0.10;0.10;;;7.30;99.90;;;;;;5038193;28;20231;-93
2022/01/07 10:05:52;;;;;;;0.10;0.10;;;7.30;99.90;;;;;;5037703;28;20247;-92
2022/01/07 10:08:27;;;;;;;0.20;0.20;;;7.30;99.90;;;;;;5036911;28;20247;-94
2022/01/07 10:11:20;;;;;;;1.23;0.13;;;7.40;99.90;;;;;;5037196;28;20212;-93
2022/01/07 10:14:12;;;;;;;0.30;0.30;;;7.40;99.90;;;;;;5039300;28;20216;-94
2022/01/07 10:16:51;;;;;;;0.30;0.20;;;7.40;99.90;;;;;;5044492;28;20208;-94
2022/01/07 10:19:33;;;;;;;0.10;0.10;;;7.40;99.90;;;;;;5037437;28;20666;-94
2022/01/07 10:22:07;;;;;;;0.17;0.17;;;7.40;99.90;;;;;;5039526;28;21003;-93
2022/01/07 10:24:54;;;;;;;0.50;0.20;;;7.40;99.90;;;;;;5040023;28;20237;-93
2022/01/07 10:27:26;;;;;;;0.27;0.27;;;7.50;99.90;;;;;;5041336;28;20559;-93
2022/01/07 10:29:57;;;;;;;0.10;0.10;;;7.40;99.90;;;;;;5040074;28;20236;-90
2022/01/07 10:32:32;;;;;;;0.20;0.20;;;7.40;99.90;;;;;;5040874;28;20216;-91
2022/01/07 10:35:09;;;;;;;0.20;0.20;;;7.40;99.90;;;;;;5039221;28;20209;-91
2022/01/07 10:37:48;;;;;;;0.30;0.20;;;7.40;99.90;;;;;;5037535;28;20201;-94
2022/01/07 10:40:33;;;;;;;0.20;0.10;;;7.40;99.90;;;;;;5037045;28;20204;-94
2022/01/07 10:43:12;;;;;;;1.40;0.30;;;7.40;99.90;;;;;;5035261;28;20232;-94
2022/01/07 10:45:44;;;;;;;0.20;0.20;;;7.40;99.90;;;;;;5036136;28;20222;-93
2022/01/07 10:48:19;;;;;;;0.33;0.30;;;7.40;99.90;;;;;;5035784;28;20240;-93
2022/01/07 10:50:51;;;;;;;0.50;0.20;;;7.40;99.90;;;;;;5036991;28;20277;-93
2022/01/07 10:53:26;;;;;;;1.63;0.20;;;7.40;99.90;;;;;;5037009;28;20687;-94
2022/01/07 10:56:10;;;;;;;0.20;0.20;;;7.40;99.90;;;;;;5036445;28;20207;-94
2022/01/07 10:59:00;;;;;;;1.17;0.10;;;7.40;99.90;;;;;;5036469;28;20209;-93
2022/01/07 11:01:42;;;;;;;0.30;0.30;;;7.40;99.90;;;;;;5035767;28;20255;-94
2022/01/07 11:04:17;;;;;;;0.50;0.30;;;7.40;99.90;;;;;;5036556;28;20216;-94
2022/01/07 11:06:51;;;;;;;0.10;0.10;;;7.40;99.90;;;;;;5036018;28;20237;-95
2022/01/07 11:09:22;;;;;;;0.20;0.20;;;7.40;99.90;;;;;;5036816;28;20213;-94
2022/01/07 11:11:56;;;;;;;0.27;0.20;;;7.40;99.90;;;;;;5035247;28;20678;-94
2022/01/07 11:14:29;;;;;;;0.10;0.10;;;7.30;99.90;;;;;;5035767;28;20209;-94
2022/01/07 11:17:04;;;;;;;0.10;0.10;;;7.30;99.90;;;;;;5034879;28;20574;-94
2022/01/07 11:19:41;;;;;;;0.10;0.10;;;7.30;99.90;;;;;;5036382;28;20208;-92
2022/01/07 11:22:14;;;;;;;0.27;0.27;;;7.30;99.90;;;;;;5042775;28;20292;-94
2022/01/07 11:24:47;;;;;;;0.10;0.10;;;7.30;99.90;;;;;;5038689;28;20239;-94
2022/01/07 11:27:22;;;;;;;1.37;1.33;;;7.40;99.90;;;;;;5036488;28;20209;-94
2022/01/07 11:30:12;;;;;;;0.10;0.10;;;7.40;99.90;;;;;;5036865;28;20238;-95
2022/01/07 11:32:44;;;;;;;1.53;0.20;;;7.40;99.90;;;;;;5036136;28;20586;-94
2022/01/07 11:35:48;;;;;;;0.20;0.10;;;7.40;99.90;;;;;;5045664;28;20216;-95
2022/01/07 11:38:44;;;;;;;13.27;4.10;;;7.40;99.90;;;;;;5040916;28;20243;-95
2022/01/07 11:41:37;;;;;;;0.10;0.10;;;7.40;99.90;;;;;;5049739;28;20233;-94
2022/01/07 11:44:15;;;;;;;0.10;0.10;;;7.40;99.90;;;;;;5054433;28;20196;-95
2022/01/07 11:46:45;;;;;;;0.10;0.10;;;7.40;99.90;;;;;;5050120;28;20196;-95
2022/01/07 11:49:35;;;;;;;0.83;0.10;;;7.40;99.90;;;;;;5044792;28;20209;-96
2022/01/07 11:52:34;;;;;;;0.30;0.20;;;7.40;99.90;;;;;;5041820;28;20217;-95
2022/01/07 11:55:28;;;;;;;1.43;0.67;;;7.40;99.90;;;;;;5039440;28;20232;-95
2022/01/07 11:58:01;;;;;;;0.33;0.10;;;7.40;99.90;;;;;;5041468;28;20239;-95
2022/01/07 12:00:56;;;;;;;0.87;0.87;;;7.40;99.90;;;;;;5039806;28;20295;-95
2022/01/07 12:03:36;;;;;;;0.10;0.10;;;7.40;99.90;;;;;;5042046;28;20232;-94
2022/01/07 12:06:44;;;;;;;0.10;0.10;;;7.50;99.90;;;;;;5039707;28;20727;-94
2022/01/07 12:09:26;;;;;;;0.73;0.10;;;7.50;99.90;;;;;;5021828;28;20206;-95
2022/01/07 12:12:00;;;;;;;0.23;0.23;;;7.50;99.90;;;;;;5020640;28;20256;-94
2022/01/07 12:14:35;;;;;;;1.17;0.20;;;7.50;99.90;;;;;;5024254;28;20261;-94
2022/01/07 12:17:13;;;;;;;0.20;0.10;;;7.50;99.90;;;;;;5018919;28;20333;-94
2022/01/07 12:20:17;;;;;;;0.30;0.30;;;7.50;99.90;;;;;;5018672;28;20209;-95
2022/01/07 12:22:57;;;;;;;0.20;0.10;;;7.60;99.90;;;;;;5019265;28;20259;-94
2022/01/07 12:25:30;;;;;;;0.10;0.10;;;7.50;99.90;;;;;;5019014;28;20210;-95
2022/01/07 12:28:04;;;;;;;0.17;0.17;;;7.50;99.90;;;;;;5018855;28;20203;-94
2022/01/07 12:30:36;;;;;;;0.10;0.10;;;7.50;99.90;;;;;;5018879;28;20273;-94
2022/01/07 12:33:11;;;;;;;0.30;0.20;;;7.50;99.90;;;;;;5019732;28;20209;-94
2022/01/07 12:35:43;;;;;;;0.30;0.20;;;7.50;99.90;;;;;;5018915;28;20551;-95
2022/01/07 12:38:16;;;;;;;0.10;0.10;;;7.50;99.90;;;;;;5033199;28;20209;-94
2022/01/07 12:41:03;;;;;;;0.10;0.10;;;7.50;99.90;;;;;;5038829;28;20247;-94
2022/01/07 12:43:36;;;;;;;0.10;0.10;;;7.50;99.90;;;;;;5038808;28;20228;-94
2022/01/07 12:46:10;;;;;;;0.10;0.10;;;7.50;99.90;;;;;;5038915;28;20241;-94
2022/01/07 12:48:43;;;;;;;3.80;0.27;;;7.50;99.90;;;;;;5038104;28;20214;-94
2022/01/07 12:51:13;;;;;;;0.70;0.10;;;7.50;99.90;;;;;;5038027;28;20289;-95
2022/01/07 12:53:58;;;;;;;0.10;0.10;;;7.40;99.90;;;;;;5037510;28;20252;-94
2022/01/07 12:56:34;;;;;;;0.10;0.10;;;7.40;99.90;;;;;;5037114;28;20201;-95
2022/01/07 12:59:13;;;;;;;0.23;0.17;;;7.50;99.90;;;;;;5039632;28;20295;-94
2022/01/07 13:01:46;;;;;;;1.07;0.10;;;7.50;99.90;;;;;;5041782;28;20321;-94
2022/01/07 13:04:19;;;;;;;0.10;0.10;;;7.50;99.90;;;;;;5037444;28;20241;-94
2022/01/07 13:06:51;;;;;;;0.10;0.10;;;7.50;99.90;;;;;;5037284;28;20571;-94
2022/01/07 13:09:24;;;;;;;0.23;0.20;;;7.50;99.90;;;;;;5038115;28;20243;-94
2022/01/07 13:11:58;;;;;;;0.77;0.20;;;7.50;99.90;;;;;;5038803;28;20254;-94
2022/01/07 13:14:30;;;;;;;1.13;0.10;;;7.50;99.90;;;;;;5048248;28;20209;-94
2022/01/07 13:17:03;;;;;;;0.70;0.70;;;7.50;99.90;;;;;;5042294;28;20205;-94
2022/01/07 13:19:34;;;;;;;0.67;0.20;;;7.60;99.90;;;;;;5037224;28;20230;-95
2022/01/07 13:22:05;;;;;;;0.20;0.20;;;7.60;99.90;;;;;;5037859;28;20224;-94
2022/01/07 13:24:36;;;;;;;0.20;0.20;;;7.60;99.90;;;;;;5036902;28;20646;-94
2022/01/07 13:27:11;;;;;;;0.10;0.10;;;7.60;99.90;;;;;;5039814;28;20204;-94
2022/01/07 13:29:49;;;;;;;1.00;0.10;;;7.60;99.90;;;;;;5038341;28;20237;-94
2022/01/07 13:32:26;;;;;;;0.10;0.10;;;7.60;99.90;;;;;;5040653;28;20240;-94
2022/01/07 13:35:06;;;;;;;0.83;0.30;;;7.70;99.90;;;;;;5037952;28;20236;-94
2022/01/07 13:37:37;;;;;;;0.10;0.10;;;7.70;99.90;;;;;;5041270;28;20239;-95
2022/01/07 13:40:14;;;;;;;0.83;0.20;;;7.70;99.90;;;;;;5037478;28;20250;-94
2022/01/07 13:42:47;;;;;;;0.33;0.23;;;7.70;99.90;;;;;;5038721;28;20267;-94
2022/01/07 13:45:24;;;;;;;0.20;0.20;;;7.70;99.90;;;;;;5039999;28;20252;-94
2022/01/07 13:48:07;;;;;;;1.57;0.20;;;7.70;99.90;;;;;;5039991;28;20249;-91
2022/01/07 13:50:40;;;;;;;0.97;0.37;;;7.70;99.90;;;;;;5038242;28;20243;-94
2022/01/07 13:53:15;;;;;;;1.50;0.40;;;7.70;99.90;;;;;;5037696;28;20239;-93
2022/01/07 13:55:49;;;;;;;0.70;0.43;;;7.70;99.90;;;;;;5039909;28;20205;-94
2022/01/07 13:58:22;;;;;;;0.43;0.40;;;7.70;99.90;;;;;;5054246;28;20572;-90
2022/01/07 14:00:54;;;;;;;0.30;0.27;;;7.80;99.90;;;;;;5055205;28;20431;-94
2022/01/07 14:03:26;;;;;;;2.00;0.60;;;7.80;99.90;;;;;;5028143;28;20239;-94
2022/01/07 14:06:04;;;;;;;1.53;0.50;;;7.80;99.90;;;;;;5200443;22;20239;-92
2022/01/07 14:08:34;;;;;;;1.13;0.60;;;7.80;99.90;;;;;;5105137;28;20238;-93
2022/01/07 14:11:13;;;;;;;0.90;0.70;;;7.80;99.90;;;;;;5101998;28;20241;-93
2022/01/07 14:13:46;;;;;;;6.33;1.20;;;7.80;99.90;;;;;;5099281;28;20241;-94
2022/01/07 14:16:25;;;;;;;2.00;1.80;;;7.90;99.90;;;;;;5099392;28;20234;-94
2022/01/07 14:19:02;;;;;;;1.37;0.90;;;7.90;99.90;;;;;;5098272;28;20206;-93
2022/01/07 14:21:34;;;;;;;1.30;1.10;;;7.90;99.90;;;;;;5100771;28;20203;-94
2022/01/07 14:24:05;;;;;;;1.83;0.90;;;7.90;99.90;;;;;;5098639;28;20304;-94